sensor_id;sensor_type;location;lat;lon;timestamp;temperature;humidity
1417;DHT22;703;51.162;13.574;2024-01-07T00:01:14;-0.30;99.90
1417;DHT22;703;51.162;13.574;2024-01-07T00:03:40;-0.80;99.90
1417;DHT22;703;51.162;13.574;2024-01-07T00:06:05;-0.90;99.90
1417;DHT22;703;51.162;13.574;2024-01-07T00:08:31;-0.90;99.90
1417;DHT22;703;51.162;13.574;2024-01-07T00:10:56;0.40;99.90
1417;DHT22;703;51.162;13.574;2024-01-07T00:13:22;-0.90;99.90
1417;DHT22;703;51.162;13.574;2024-01-07T00:15:47;-1.90;99.90
1417;DHT22;703;51.162;13.574;2024-01-07T00:18:13;-0.90;99.90
1417;DHT22;703;51.162;13.574;2024-01-07T00:20:38;-0.80;99.90
1417;DHT22;703;51.162;13.574;2024-01-07T00:23:03;-0.80;99.90
1417;DHT22;703;51.162;13.574;2024-01-07T00:25:29;-0.90;99.90
1417;DHT22;703;51.162;13.574;2024-01-07T00:27:54;-2.50;99.90
1417;DHT22;703;51.162;13.574;2024-01-07T00:30:20;-0.40;99.90
1417;DHT22;703;51.162;13.574;2024-01-07T00:32:46;-0.90;99.90
1417;DHT22;703;51.162;13.574;2024-01-07T00:35:11;-0.30;99.90
1417;DHT22;703;51.162;13.574;2024-01-07T00:37:37;0.20;99.90
1417;DHT22;703;51.162;13.574;2024-01-07T00:40:03;-1.00;99.90
1417;DHT22;703;51.162;13.574;2024-01-07T00:42:29;-0.90;99.90
1417;DHT22;703;51.162;13.574;2024-01-07T00:44:54;-0.40;99.90
1417;DHT22;703;51.162;13.574;2024-01-07T00:47:19;-1.30;99.90
1417;DHT22;703;51.162;13.574;2024-01-07T00:49:45;-1.00;99.90
1417;DHT22;703;51.162;13.574;2024-01-07T00:52:10;-0.90;99.90
1417;DHT22;703;51.162;13.574;2024-01-07T00:54:36;-0.40;99.90
1417;DHT22;703;51.162;13.574;2024-01-07T00:57:01;-1.50;99.90
1417;DHT22;703;51.162;13.574;2024-01-07T00:59:28;-0.80;99.90
1417;DHT22;703;51.162;13.574;2024-01-07T01:01:53;-0.80;99.90
1417;DHT22;703;51.162;13.574;2024-01-07T01:04:19;-2.00;99.90
1417;DHT22;703;51.162;13.574;2024-01-07T01:06:45;-0.70;99.90
1417;DHT22;703;51.162;13.574;2024-01-07T01:09:10;-0.90;99.90
1417;DHT22;703;51.162;13.574;2024-01-07T01:11:35;-0.80;99.90
1417;DHT22;703;51.162;13.574;2024-01-07T01:14:01;0.20;99.90
1417;DHT22;703;51.162;13.574;2024-01-07T01:16:26;-0.90;99.90
1417;DHT22;703;51.162;13.574;2024-01-07T01:18:52;-2.30;99.90
1417;DHT22;703;51.162;13.574;2024-01-07T01:21:17;-0.70;99.90
1417;DHT22;703;51.162;13.574;2024-01-07T01:23:43;-0.80;99.90
1417;DHT22;703;51.162;13.574;2024-01-07T01:26:09;-2.50;99.90
1417;DHT22;703;51.162;13.574;2024-01-07T01:28:34;-1.00;99.90
1417;DHT22;703;51.162;13.574;2024-01-07T01:31:00;-0.90;99.90
1417;DHT22;703;51.162;13.574;2024-01-07T01:33:25;-1.00;99.90
1417;DHT22;703;51.162;13.574;2024-01-07T01:35:50;0.20;99.90
1417;DHT22;703;51.162;13.574;2024-01-07T01:38:16;-0.30;99.90
1417;DHT22;703;51.162;13.574;2024-01-07T01:40:41;-0.60;99.90
1417;DHT22;703;51.162;13.574;2024-01-07T01:43:07;-1.00;99.90
1417;DHT22;703;51.162;13.574;2024-01-07T01:45:33;-1.00;99.90
1417;DHT22;703;51.162;13.574;2024-01-07T01:47:58;-1.00;99.90
1417;DHT22;703;51.162;13.574;2024-01-07T01:50:24;-1.00;99.90
1417;DHT22;703;51.162;13.574;2024-01-07T01:52:49;-1.00;99.90
1417;DHT22;703;51.162;13.574;2024-01-07T01:55:15;-1.00;99.90
1417;DHT22;703;51.162;13.574;2024-01-07T01:57:41;-1.00;99.90
1417;DHT22;703;51.162;13.574;2024-01-07T02:00:07;-0.80;99.90
1417;DHT22;703;51.162;13.574;2024-01-07T02:02:33;-1.00;99.90
1417;DHT22;703;51.162;13.574;2024-01-07T02:05:02;-1.00;99.90
1417;DHT22;703;51.162;13.574;2024-01-07T02:07:28;-1.00;99.90
1417;DHT22;703;51.162;13.574;2024-01-07T02:09:54;-1.00;99.90
1417;DHT22;703;51.162;13.574;2024-01-07T02:12:20;-1.00;99.90
1417;DHT22;703;51.162;13.574;2024-01-07T02:14:45;-1.10;99.90
1417;DHT22;703;51.162;13.574;2024-01-07T02:17:11;-1.40;99.90
1417;DHT22;703;51.162;13.574;2024-01-07T02:19:36;-1.10;99.90
1417;DHT22;703;51.162;13.574;2024-01-07T02:22:03;-1.00;99.90
1417;DHT22;703;51.162;13.574;2024-01-07T02:24:28;-1.20;99.90
1417;DHT22;703;51.162;13.574;2024-01-07T02:26:56;-1.10;99.90
1417;DHT22;703;51.162;13.574;2024-01-07T02:29:21;-0.90;99.90
1417;DHT22;703;51.162;13.574;2024-01-07T02:31:46;-1.00;99.90
1417;DHT22;703;51.162;13.574;2024-01-07T02:34:12;-1.10;99.90
1417;DHT22;703;51.162;13.574;2024-01-07T02:36:37;-0.40;99.90
1417;DHT22;703;51.162;13.574;2024-01-07T02:39:03;-1.70;99.90
1417;DHT22;703;51.162;13.574;2024-01-07T02:41:28;-1.00;99.90
1417;DHT22;703;51.162;13.574;2024-01-07T02:43:54;-0.70;99.90
1417;DHT22;703;51.162;13.574;2024-01-07T02:46:19;-2.00;99.90
1417;DHT22;703;51.162;13.574;2024-01-07T02:48:45;-1.20;99.90
1417;DHT22;703;51.162;13.574;2024-01-07T02:51:10;-2.00;99.90
1417;DHT22;703;51.162;13.574;2024-01-07T02:53:36;-1.10;99.90
1417;DHT22;703;51.162;13.574;2024-01-07T02:56:01;-0.20;99.90
1417;DHT22;703;51.162;13.574;2024-01-07T02:58:26;-1.90;99.90
1417;DHT22;703;51.162;13.574;2024-01-07T03:00:52;-1.00;99.90
1417;DHT22;703;51.162;13.574;2024-01-07T03:03:17;-1.30;99.90
1417;DHT22;703;51.162;13.574;2024-01-07T03:05:43;-1.20;99.90
1417;DHT22;703;51.162;13.574;2024-01-07T03:08:08;-1.30;99.90
1417;DHT22;703;51.162;13.574;2024-01-07T03:10:34;-1.20;99.90
1417;DHT22;703;51.162;13.574;2024-01-07T03:13:03;-1.30;99.90
1417;DHT22;703;51.162;13.574;2024-01-07T03:15:29;-1.30;99.90
1417;DHT22;703;51.162;13.574;2024-01-07T03:17:54;-0.60;99.90
1417;DHT22;703;51.162;13.574;2024-01-07T03:20:19;-0.60;99.90
1417;DHT22;703;51.162;13.574;2024-01-07T03:22:45;-1.20;99.90
1417;DHT22;703;51.162;13.574;2024-01-07T03:25:10;-0.60;99.90
1417;DHT22;703;51.162;13.574;2024-01-07T03:27:36;-1.50;99.90
1417;DHT22;703;51.162;13.574;2024-01-07T03:30:01;-1.20;99.90
1417;DHT22;703;51.162;13.574;2024-01-07T03:32:27;-1.30;99.90
1417;DHT22;703;51.162;13.574;2024-01-07T03:34:52;-2.30;99.90
1417;DHT22;703;51.162;13.574;2024-01-07T03:37:18;-0.70;99.90
1417;DHT22;703;51.162;13.574;2024-01-07T03:39:44;-1.50;99.90
1417;DHT22;703;51.162;13.574;2024-01-07T03:42:09;-1.30;99.90
1417;DHT22;703;51.162;13.574;2024-01-07T03:44:39;-1.40;99.90
1417;DHT22;703;51.162;13.574;2024-01-07T03:47:05;-1.40;99.90
1417;DHT22;703;51.162;13.574;2024-01-07T03:49:31;-1.40;99.90
1417;DHT22;703;51.162;13.574;2024-01-07T03:51:56;-1.40;99.90
1417;DHT22;703;51.162;13.574;2024-01-07T03:54:22;-1.20;99.90
1417;DHT22;703;51.162;13.574;2024-01-07T03:56:47;-2.30;99.90
1417;DHT22;703;51.162;13.574;2024-01-07T03:59:12;-1.40;99.90
1417;DHT22;703;51.162;13.574;2024-01-07T04:01:38;-1.40;99.90
1417;DHT22;703;51.162;13.574;2024-01-07T04:04:03;-1.80;99.90
1417;DHT22;703;51.162;13.574;2024-01-07T04:06:29;-1.40;99.90
1417;DHT22;703;51.162;13.574;2024-01-07T04:08:54;-1.40;99.90
1417;DHT22;703;51.162;13.574;2024-01-07T04:11:19;-1.20;99.90
1417;DHT22;703;51.162;13.574;2024-01-07T04:13:45;-1.40;99.90
1417;DHT22;703;51.162;13.574;2024-01-07T04:16:19;-1.30;99.90
1417;DHT22;703;51.162;13.574;2024-01-07T04:18:45;-1.40;99.90
1417;DHT22;703;51.162;13.574;2024-01-07T04:21:11;-1.40;99.90
1417;DHT22;703;51.162;13.574;2024-01-07T04:23:36;-1.40;99.90
1417;DHT22;703;51.162;13.574;2024-01-07T04:26:01;-1.50;99.90
1417;DHT22;703;51.162;13.574;2024-01-07T04:28:27;-1.50;99.90
1417;DHT22;703;51.162;13.574;2024-01-07T04:30:52;-0.90;99.90
1417;DHT22;703;51.162;13.574;2024-01-07T04:33:18;-1.50;99.90
1417;DHT22;703;51.162;13.574;2024-01-07T04:35:43;-1.50;99.90
1417;DHT22;703;51.162;13.574;2024-01-07T04:38:08;-0.90;99.90
1417;DHT22;703;51.162;13.574;2024-01-07T04:40:34;-0.40;99.90
1417;DHT22;703;51.162;13.574;2024-01-07T04:42:59;-1.50;99.90
1417;DHT22;703;51.162;13.574;2024-01-07T04:45:25;-1.50;99.90
1417;DHT22;703;51.162;13.574;2024-01-07T04:47:50;-1.60;99.90
1417;DHT22;703;51.162;13.574;2024-01-07T04:50:16;-1.50;99.90
1417;DHT22;703;51.162;13.574;2024-01-07T04:52:45;-1.50;99.90
1417;DHT22;703;51.162;13.574;2024-01-07T04:55:11;-1.60;99.90
1417;DHT22;703;51.162;13.574;2024-01-07T04:57:36;-1.50;99.90
1417;DHT22;703;51.162;13.574;2024-01-07T05:00:02;-1.40;99.90
1417;DHT22;703;51.162;13.574;2024-01-07T05:02:28;-1.70;99.90
1417;DHT22;703;51.162;13.574;2024-01-07T05:04:54;-1.70;99.90
1417;DHT22;703;51.162;13.574;2024-01-07T05:07:19;-1.50;99.90
1417;DHT22;703;51.162;13.574;2024-01-07T05:09:44;-1.40;99.90
1417;DHT22;703;51.162;13.574;2024-01-07T05:12:10;-1.70;99.90
1417;DHT22;703;51.162;13.574;2024-01-07T05:14:35;-1.70;99.90
1417;DHT22;703;51.162;13.574;2024-01-07T05:17:02;-1.50;99.90
1417;DHT22;703;51.162;13.574;2024-01-07T05:19:28;-1.70;99.90
1417;DHT22;703;51.162;13.574;2024-01-07T05:21:53;-1.70;99.90
1417;DHT22;703;51.162;13.574;2024-01-07T05:24:19;-1.70;99.90
1417;DHT22;703;51.162;13.574;2024-01-07T05:26:44;-1.80;99.90
1417;DHT22;703;51.162;13.574;2024-01-07T05:29:10;-1.90;99.90
1417;DHT22;703;51.162;13.574;2024-01-07T05:31:35;-1.80;99.90
1417;DHT22;703;51.162;13.574;2024-01-07T05:34:01;-1.80;99.90
1417;DHT22;703;51.162;13.574;2024-01-07T05:36:27;-1.70;99.90
1417;DHT22;703;51.162;13.574;2024-01-07T05:38:53;-2.00;99.90
1417;DHT22;703;51.162;13.574;2024-01-07T05:41:18;-1.70;99.90
1417;DHT22;703;51.162;13.574;2024-01-07T05:43:43;-1.80;99.90
1417;DHT22;703;51.162;13.574;2024-01-07T05:46:09;-1.80;99.90
1417;DHT22;703;51.162;13.574;2024-01-07T05:48:42;-1.80;99.90
1417;DHT22;703;51.162;13.574;2024-01-07T05:51:09;-1.80;99.90
1417;DHT22;703;51.162;13.574;2024-01-07T05:53:34;-1.90;99.90
1417;DHT22;703;51.162;13.574;2024-01-07T05:56:00;-1.60;99.90
1417;DHT22;703;51.162;13.574;2024-01-07T05:58:25;-2.40;99.90
1417;DHT22;703;51.162;13.574;2024-01-07T06:00:51;-1.90;99.90
1417;DHT22;703;51.162;13.574;2024-01-07T06:03:16;-1.90;99.90
1417;DHT22;703;51.162;13.574;2024-01-07T06:05:41;-1.90;99.90
1417;DHT22;703;51.162;13.574;2024-01-07T06:08:07;-2.20;99.90
1417;DHT22;703;51.162;13.574;2024-01-07T06:10:32;-1.90;99.90
1417;DHT22;703;51.162;13.574;2024-01-07T06:12:57;-1.90;99.90
1417;DHT22;703;51.162;13.574;2024-01-07T06:15:23;-1.90;99.90
1417;DHT22;703;51.162;13.574;2024-01-07T06:17:48;-2.00;99.90
1417;DHT22;703;51.162;13.574;2024-01-07T06:20:14;-1.90;99.90
1417;DHT22;703;51.162;13.574;2024-01-07T06:22:39;-1.90;99.90
1417;DHT22;703;51.162;13.574;2024-01-07T06:25:05;-1.90;99.90
1417;DHT22;703;51.162;13.574;2024-01-07T06:27:30;-2.00;99.90
1417;DHT22;703;51.162;13.574;2024-01-07T06:29:56;-1.50;99.90
1417;DHT22;703;51.162;13.574;2024-01-07T06:32:21;-2.00;99.90
1417;DHT22;703;51.162;13.574;2024-01-07T06:34:47;-1.80;99.90
1417;DHT22;703;51.162;13.574;2024-01-07T06:37:12;-2.00;99.90
1417;DHT22;703;51.162;13.574;2024-01-07T06:39:37;-2.00;99.90
1417;DHT22;703;51.162;13.574;2024-01-07T06:42:03;-2.00;99.90
1417;DHT22;703;51.162;13.574;2024-01-07T06:44:29;-1.90;99.90
1417;DHT22;703;51.162;13.574;2024-01-07T06:46:54;-2.40;99.90
1417;DHT22;703;51.162;13.574;2024-01-07T06:49:19;-1.90;99.90
1417;DHT22;703;51.162;13.574;2024-01-07T06:51:45;-2.00;99.90
1417;DHT22;703;51.162;13.574;2024-01-07T06:54:10;-2.00;99.90
1417;DHT22;703;51.162;13.574;2024-01-07T06:56:36;-1.90;99.90
1417;DHT22;703;51.162;13.574;2024-01-07T06:59:01;-1.90;99.90
1417;DHT22;703;51.162;13.574;2024-01-07T07:01:27;-2.00;99.90
1417;DHT22;703;51.162;13.574;2024-01-07T07:03:53;-1.90;99.90
1417;DHT22;703;51.162;13.574;2024-01-07T07:06:18;-1.60;99.90
1417;DHT22;703;51.162;13.574;2024-01-07T07:08:43;-2.10;99.90
1417;DHT22;703;51.162;13.574;2024-01-07T07:11:09;-2.00;99.90
1417;DHT22;703;51.162;13.574;2024-01-07T07:13:34;-2.10;99.90
1417;DHT22;703;51.162;13.574;2024-01-07T07:16:00;-1.50;99.90
1417;DHT22;703;51.162;13.574;2024-01-07T07:18:25;-2.70;99.90
1417;DHT22;703;51.162;13.574;2024-01-07T07:20:51;-1.90;99.90
1417;DHT22;703;51.162;13.574;2024-01-07T07:23:16;-2.20;99.90
1417;DHT22;703;51.162;13.574;2024-01-07T07:25:42;-2.30;99.90
1417;DHT22;703;51.162;13.574;2024-01-07T07:28:07;-2.40;99.90
1417;DHT22;703;51.162;13.574;2024-01-07T07:30:33;-2.30;99.90
1417;DHT22;703;51.162;13.574;2024-01-07T07:32:58;-2.20;99.90
1417;DHT22;703;51.162;13.574;2024-01-07T07:35:23;-2.30;99.90
1417;DHT22;703;51.162;13.574;2024-01-07T07:37:49;-2.20;99.90
1417;DHT22;703;51.162;13.574;2024-01-07T07:40:14;-2.20;99.90
1417;DHT22;703;51.162;13.574;2024-01-07T07:42:40;-2.20;99.90
1417;DHT22;703;51.162;13.574;2024-01-07T07:45:06;-2.30;99.90
1417;DHT22;703;51.162;13.574;2024-01-07T07:47:31;-2.10;99.90
1417;DHT22;703;51.162;13.574;2024-01-07T07:49:57;-5.10;99.90
1417;DHT22;703;51.162;13.574;2024-01-07T07:52:22;-2.30;99.90
1417;DHT22;703;51.162;13.574;2024-01-07T07:54:53;-2.30;99.90
1417;DHT22;703;51.162;13.574;2024-01-07T07:57:20;-2.40;99.90
1417;DHT22;703;51.162;13.574;2024-01-07T07:59:50;-2.30;99.90
1417;DHT22;703;51.162;13.574;2024-01-07T08:02:16;-2.30;99.90
1417;DHT22;703;51.162;13.574;2024-01-07T08:04:41;-1.90;99.90
1417;DHT22;703;51.162;13.574;2024-01-07T08:07:08;-2.30;99.90
1417;DHT22;703;51.162;13.574;2024-01-07T08:09:33;-2.20;99.90
1417;DHT22;703;51.162;13.574;2024-01-07T08:12:02;-2.30;99.90
1417;DHT22;703;51.162;13.574;2024-01-07T08:14:27;-2.30;99.90
1417;DHT22;703;51.162;13.574;2024-01-07T08:16:54;-2.30;99.90
1417;DHT22;703;51.162;13.574;2024-01-07T08:19:19;-2.40;99.90
1417;DHT22;703;51.162;13.574;2024-01-07T08:21:45;-2.20;99.90
1417;DHT22;703;51.162;13.574;2024-01-07T08:24:11;-2.40;99.90
1417;DHT22;703;51.162;13.574;2024-01-07T08:26:36;-2.30;99.90
1417;DHT22;703;51.162;13.574;2024-01-07T08:29:02;-2.30;99.90
1417;DHT22;703;51.162;13.574;2024-01-07T08:31:27;-2.30;99.90
1417;DHT22;703;51.162;13.574;2024-01-07T08:33:53;-2.40;99.90
1417;DHT22;703;51.162;13.574;2024-01-07T08:36:18;-2.50;99.90
1417;DHT22;703;51.162;13.574;2024-01-07T08:38:44;-2.30;99.90
1417;DHT22;703;51.162;13.574;2024-01-07T08:41:09;-1.90;99.90
1417;DHT22;703;51.162;13.574;2024-01-07T08:43:35;-2.40;99.90
1417;DHT22;703;51.162;13.574;2024-01-07T08:46:00;-2.40;99.90
1417;DHT22;703;51.162;13.574;2024-01-07T08:48:26;-2.40;99.90
1417;DHT22;703;51.162;13.574;2024-01-07T08:50:51;-2.30;99.90
1417;DHT22;703;51.162;13.574;2024-01-07T08:53:17;-2.30;99.90
1417;DHT22;703;51.162;13.574;2024-01-07T08:55:43;-2.40;99.90
1417;DHT22;703;51.162;13.574;2024-01-07T08:58:08;-2.30;99.90
1417;DHT22;703;51.162;13.574;2024-01-07T09:00:34;-2.20;99.90
1417;DHT22;703;51.162;13.574;2024-01-07T09:02:59;-2.30;99.90
1417;DHT22;703;51.162;13.574;2024-01-07T09:05:25;-1.70;99.90
1417;DHT22;703;51.162;13.574;2024-01-07T09:07:50;-1.30;99.90
1417;DHT22;703;51.162;13.574;2024-01-07T09:10:15;-2.50;99.90
1417;DHT22;703;51.162;13.574;2024-01-07T09:12:41;-2.30;99.90
1417;DHT22;703;51.162;13.574;2024-01-07T09:15:06;-2.30;99.90
1417;DHT22;703;51.162;13.574;2024-01-07T09:17:34;-2.20;99.90
1417;DHT22;703;51.162;13.574;2024-01-07T09:20:00;-2.30;99.90
1417;DHT22;703;51.162;13.574;2024-01-07T09:22:25;-2.30;99.90
1417;DHT22;703;51.162;13.574;2024-01-07T09:24:50;-2.10;99.90
1417;DHT22;703;51.162;13.574;2024-01-07T09:27:16;-2.40;99.90
1417;DHT22;703;51.162;13.574;2024-01-07T09:29:41;-2.20;99.90
1417;DHT22;703;51.162;13.574;2024-01-07T09:32:07;-2.20;99.90
1417;DHT22;703;51.162;13.574;2024-01-07T09:34:32;-1.50;99.90
1417;DHT22;703;51.162;13.574;2024-01-07T09:36:58;-2.20;99.90
1417;DHT22;703;51.162;13.574;2024-01-07T09:39:23;-2.20;99.90
1417;DHT22;703;51.162;13.574;2024-01-07T09:41:48;-2.30;99.90
1417;DHT22;703;51.162;13.574;2024-01-07T09:44:14;-2.40;99.90
1417;DHT22;703;51.162;13.574;2024-01-07T09:46:40;-3.20;99.90
1417;DHT22;703;51.162;13.574;2024-01-07T09:49:06;-3.90;99.90
1417;DHT22;703;51.162;13.574;2024-01-07T09:51:32;-2.40;99.90
1417;DHT22;703;51.162;13.574;2024-01-07T09:54:01;-1.90;99.90
1417;DHT22;703;51.162;13.574;2024-01-07T09:56:28;-2.30;99.90
1417;DHT22;703;51.162;13.574;2024-01-07T09:58:58;-2.60;99.90
1417;DHT22;703;51.162;13.574;2024-01-07T10:01:24;-2.50;99.90
1417;DHT22;703;51.162;13.574;2024-01-07T10:03:49;-2.50;99.90
1417;DHT22;703;51.162;13.574;2024-01-07T10:06:17;-2.30;99.90
1417;DHT22;703;51.162;13.574;2024-01-07T10:08:45;-2.40;99.90
1417;DHT22;703;51.162;13.574;2024-01-07T10:11:13;-2.30;99.90
1417;DHT22;703;51.162;13.574;2024-01-07T10:13:39;-2.40;99.90
1417;DHT22;703;51.162;13.574;2024-01-07T10:16:04;-1.90;99.90
1417;DHT22;703;51.162;13.574;2024-01-07T10:21:01;-2.50;99.90
1417;DHT22;703;51.162;13.574;2024-01-07T10:23:28;-2.70;99.90
1417;DHT22;703;51.162;13.574;2024-01-07T10:25:54;-2.70;99.90
1417;DHT22;703;51.162;13.574;2024-01-07T10:28:22;-2.60;99.90
1417;DHT22;703;51.162;13.574;2024-01-07T10:30:50;-2.50;99.90
1417;DHT22;703;51.162;13.574;2024-01-07T10:33:19;-2.60;99.90
1417;DHT22;703;51.162;13.574;2024-01-07T10:35:50;0.30;99.90
1417;DHT22;703;51.162;13.574;2024-01-07T10:38:16;-2.70;99.90
1417;DHT22;703;51.162;13.574;2024-01-07T10:40:42;-2.70;99.90
1417;DHT22;703;51.162;13.574;2024-01-07T10:43:09;-2.70;99.90
1417;DHT22;703;51.162;13.574;2024-01-07T10:45:34;-2.80;99.90
1417;DHT22;703;51.162;13.574;2024-01-07T10:48:00;-3.10;99.90
1417;DHT22;703;51.162;13.574;2024-01-07T10:50:29;-2.80;99.90
1417;DHT22;703;51.162;13.574;2024-01-07T10:53:02;-2.90;99.90
1417;DHT22;703;51.162;13.574;2024-01-07T10:55:30;-2.90;99.90
1417;DHT22;703;51.162;13.574;2024-01-07T10:57:58;-4.30;99.90
1417;DHT22;703;51.162;13.574;2024-01-07T11:00:24;-5.60;99.90
1417;DHT22;703;51.162;13.574;2024-01-07T11:05:36;-2.80;99.90
1417;DHT22;703;51.162;13.574;2024-01-07T11:11:12;-2.90;99.90
1417;DHT22;703;51.162;13.574;2024-01-07T11:13:39;-2.80;99.90
1417;DHT22;703;51.162;13.574;2024-01-07T11:16:05;-2.90;99.90
1417;DHT22;703;51.162;13.574;2024-01-07T11:18:37;-2.90;99.90
1417;DHT22;703;51.162;13.574;2024-01-07T11:21:03;-2.70;99.90
1417;DHT22;703;51.162;13.574;2024-01-07T11:23:32;-2.80;99.90
1417;DHT22;703;51.162;13.574;2024-01-07T11:26:01;-2.80;99.90
1417;DHT22;703;51.162;13.574;2024-01-07T11:31:07;-2.70;99.90
1417;DHT22;703;51.162;13.574;2024-01-07T11:33:36;-2.70;99.90
1417;DHT22;703;51.162;13.574;2024-01-07T11:36:01;-2.70;99.90
1417;DHT22;703;51.162;13.574;2024-01-07T11:38:27;-1.70;99.90
1417;DHT22;703;51.162;13.574;2024-01-07T11:40:53;-2.90;99.90
1417;DHT22;703;51.162;13.574;2024-01-07T11:43:19;-2.70;99.90
1417;DHT22;703;51.162;13.574;2024-01-07T11:45:45;-2.80;99.90
1417;DHT22;703;51.162;13.574;2024-01-07T11:48:10;-2.70;99.90
1417;DHT22;703;51.162;13.574;2024-01-07T11:50:36;-2.00;99.90
1417;DHT22;703;51.162;13.574;2024-01-07T11:53:01;-2.50;99.90
1417;DHT22;703;51.162;13.574;2024-01-07T11:55:27;1.50;99.90
1417;DHT22;703;51.162;13.574;2024-01-07T11:57:55;-2.20;99.90
1417;DHT22;703;51.162;13.574;2024-01-07T12:00:20;-2.40;99.90
1417;DHT22;703;51.162;13.574;2024-01-07T12:02:46;-2.00;99.90
1417;DHT22;703;51.162;13.574;2024-01-07T12:05:12;-1.90;99.90
1417;DHT22;703;51.162;13.574;2024-01-07T12:07:41;-1.90;99.90
1417;DHT22;703;51.162;13.574;2024-01-07T12:10:09;-2.10;99.90
1417;DHT22;703;51.162;13.574;2024-01-07T12:12:38;-1.70;99.90
1417;DHT22;703;51.162;13.574;2024-01-07T12:15:04;-2.20;99.90
1417;DHT22;703;51.162;13.574;2024-01-07T12:17:30;-2.20;99.90
1417;DHT22;703;51.162;13.574;2024-01-07T12:19:56;-2.50;99.90
1417;DHT22;703;51.162;13.574;2024-01-07T12:22:21;-2.10;99.90
1417;DHT22;703;51.162;13.574;2024-01-07T12:24:47;-2.10;99.90
1417;DHT22;703;51.162;13.574;2024-01-07T12:27:24;-2.20;99.90
1417;DHT22;703;51.162;13.574;2024-01-07T12:29:56;-2.20;99.90
1417;DHT22;703;51.162;13.574;2024-01-07T12:32:22;-2.30;99.90
1417;DHT22;703;51.162;13.574;2024-01-07T12:34:48;-2.50;99.90
1417;DHT22;703;51.162;13.574;2024-01-07T12:37:13;-2.20;99.90
1417;DHT22;703;51.162;13.574;2024-01-07T12:39:39;-2.20;99.90
1417;DHT22;703;51.162;13.574;2024-01-07T12:42:05;-2.50;99.90
1417;DHT22;703;51.162;13.574;2024-01-07T12:44:32;-2.50;99.90
1417;DHT22;703;51.162;13.574;2024-01-07T12:46:57;-2.70;99.90
1417;DHT22;703;51.162;13.574;2024-01-07T12:49:23;-2.20;99.90
1417;DHT22;703;51.162;13.574;2024-01-07T12:51:48;-2.40;99.90
1417;DHT22;703;51.162;13.574;2024-01-07T12:54:14;-2.60;99.90
1417;DHT22;703;51.162;13.574;2024-01-07T12:56:39;-2.30;99.90
1417;DHT22;703;51.162;13.574;2024-01-07T12:59:05;-2.20;99.90
1417;DHT22;703;51.162;13.574;2024-01-07T13:01:30;-2.30;99.90
1417;DHT22;703;51.162;13.574;2024-01-07T13:03:56;-2.30;99.90
1417;DHT22;703;51.162;13.574;2024-01-07T13:06:22;-2.40;99.90
1417;DHT22;703;51.162;13.574;2024-01-07T13:08:48;-2.40;99.90
1417;DHT22;703;51.162;13.574;2024-01-07T13:11:13;-2.30;99.90
1417;DHT22;703;51.162;13.574;2024-01-07T13:13:40;-2.30;99.90
1417;DHT22;703;51.162;13.574;2024-01-07T13:16:06;-2.40;99.90
1417;DHT22;703;51.162;13.574;2024-01-07T13:18:31;-2.30;99.90
1417;DHT22;703;51.162;13.574;2024-01-07T13:20:56;-1.90;99.90
1417;DHT22;703;51.162;13.574;2024-01-07T13:23:22;-2.30;99.90
1417;DHT22;703;51.162;13.574;2024-01-07T13:25:47;-1.30;99.90
1417;DHT22;703;51.162;13.574;2024-01-07T13:28:13;-2.00;99.90
1417;DHT22;703;51.162;13.574;2024-01-07T13:30:38;-2.10;99.90
1417;DHT22;703;51.162;13.574;2024-01-07T13:33:05;-2.10;99.90
1417;DHT22;703;51.162;13.574;2024-01-07T13:35:31;-1.40;99.90
1417;DHT22;703;51.162;13.574;2024-01-07T13:37:56;-2.00;99.90
1417;DHT22;703;51.162;13.574;2024-01-07T13:40:22;-1.70;99.90
1417;DHT22;703;51.162;13.574;2024-01-07T13:42:47;-1.90;99.90
1417;DHT22;703;51.162;13.574;2024-01-07T13:45:16;-1.90;99.90
1417;DHT22;703;51.162;13.574;2024-01-07T13:47:45;-2.90;99.90
1417;DHT22;703;51.162;13.574;2024-01-07T13:50:10;-1.80;99.90
1417;DHT22;703;51.162;13.574;2024-01-07T13:52:36;-1.90;99.90
1417;DHT22;703;51.162;13.574;2024-01-07T13:55:01;-1.60;99.90
1417;DHT22;703;51.162;13.574;2024-01-07T13:57:27;-1.70;99.90
1417;DHT22;703;51.162;13.574;2024-01-07T13:59:52;-1.90;99.90
1417;DHT22;703;51.162;13.574;2024-01-07T14:02:17;-2.10;99.90
1417;DHT22;703;51.162;13.574;2024-01-07T14:04:44;-2.00;99.90
1417;DHT22;703;51.162;13.574;2024-01-07T14:07:10;-2.00;99.90
1417;DHT22;703;51.162;13.574;2024-01-07T14:09:35;-2.00;99.90
1417;DHT22;703;51.162;13.574;2024-01-07T14:12:01;-2.00;99.90
1417;DHT22;703;51.162;13.574;2024-01-07T14:14:28;-2.20;99.90
1417;DHT22;703;51.162;13.574;2024-01-07T14:16:53;-1.40;99.90
1417;DHT22;703;51.162;13.574;2024-01-07T14:19:19;-3.00;99.90
1417;DHT22;703;51.162;13.574;2024-01-07T14:21:44;-2.10;99.90
1417;DHT22;703;51.162;13.574;2024-01-07T14:24:09;-2.30;99.90
1417;DHT22;703;51.162;13.574;2024-01-07T14:26:35;-2.20;99.90
1417;DHT22;703;51.162;13.574;2024-01-07T14:29:00;-2.10;99.90
1417;DHT22;703;51.162;13.574;2024-01-07T14:31:26;-1.70;99.90
1417;DHT22;703;51.162;13.574;2024-01-07T14:33:51;-2.20;99.90
1417;DHT22;703;51.162;13.574;2024-01-07T14:36:16;-2.00;99.90
1417;DHT22;703;51.162;13.574;2024-01-07T14:38:45;-2.20;99.90
1417;DHT22;703;51.162;13.574;2024-01-07T14:41:13;-2.10;99.90
1417;DHT22;703;51.162;13.574;2024-01-07T14:43:38;-2.20;99.90
1417;DHT22;703;51.162;13.574;2024-01-07T14:46:06;-1.90;99.90
1417;DHT22;703;51.162;13.574;2024-01-07T14:48:31;-2.20;99.90
1417;DHT22;703;51.162;13.574;2024-01-07T14:50:56;-3.50;99.90
1417;DHT22;703;51.162;13.574;2024-01-07T14:53:22;-2.20;99.90
1417;DHT22;703;51.162;13.574;2024-01-07T14:55:47;-2.20;99.90
1417;DHT22;703;51.162;13.574;2024-01-07T14:58:13;-2.30;99.90
1417;DHT22;703;51.162;13.574;2024-01-07T15:00:38;-2.00;99.90
1417;DHT22;703;51.162;13.574;2024-01-07T15:03:04;-2.20;99.90
1417;DHT22;703;51.162;13.574;2024-01-07T15:05:29;-2.20;99.90
1417;DHT22;703;51.162;13.574;2024-01-07T15:07:55;-2.20;99.90
1417;DHT22;703;51.162;13.574;2024-01-07T15:10:20;-2.20;99.90
1417;DHT22;703;51.162;13.574;2024-01-07T15:12:46;-2.20;99.90
1417;DHT22;703;51.162;13.574;2024-01-07T15:15:13;-2.20;99.90
1417;DHT22;703;51.162;13.574;2024-01-07T15:17:39;-2.50;99.90
1417;DHT22;703;51.162;13.574;2024-01-07T15:20:05;-2.30;99.90
1417;DHT22;703;51.162;13.574;2024-01-07T15:22:32;-2.20;99.90
1417;DHT22;703;51.162;13.574;2024-01-07T15:24:57;-2.00;99.90
1417;DHT22;703;51.162;13.574;2024-01-07T15:27:23;-2.20;99.90
1417;DHT22;703;51.162;13.574;2024-01-07T15:29:48;-2.30;99.90
1417;DHT22;703;51.162;13.574;2024-01-07T15:32:14;-2.10;99.90
1417;DHT22;703;51.162;13.574;2024-01-07T15:34:39;-2.10;99.90
1417;DHT22;703;51.162;13.574;2024-01-07T15:37:04;-2.70;99.90
1417;DHT22;703;51.162;13.574;2024-01-07T15:39:30;-1.80;99.90
1417;DHT22;703;51.162;13.574;2024-01-07T15:41:55;-2.10;99.90
1417;DHT22;703;51.162;13.574;2024-01-07T15:44:22;-2.10;99.90
1417;DHT22;703;51.162;13.574;2024-01-07T15:46:48;-2.00;99.90
1417;DHT22;703;51.162;13.574;2024-01-07T15:49:14;-1.10;99.90
1417;DHT22;703;51.162;13.574;2024-01-07T15:51:39;-2.40;99.90
1417;DHT22;703;51.162;13.574;2024-01-07T15:54:06;-2.20;99.90
1417;DHT22;703;51.162;13.574;2024-01-07T15:56:32;-2.20;99.90
1417;DHT22;703;51.162;13.574;2024-01-07T15:58:58;-2.20;99.90
1417;DHT22;703;51.162;13.574;2024-01-07T16:01:23;-1.90;99.90
1417;DHT22;703;51.162;13.574;2024-01-07T16:03:49;-2.20;99.90